createdAt,value
2019-05-02T00:00:20.267Z,8.45
2019-05-02T00:02:48.917Z,8.35
2019-05-02T00:07:53.892Z,8.19
2019-05-02T00:15:39.102Z,8.23
2019-05-02T00:18:48.064Z,8.35
2019-05-02T00:23:59.274Z,8.18
2019-05-02T00:26:27.078Z,8.27
2019-05-02T00:28:55.755Z,8.22
2019-05-02T00:31:24.512Z,8.07
2019-05-02T00:33:53.163Z,8.08
2019-05-02T00:36:21.801Z,8.16
2019-05-02T00:39:13.661Z,8.14
2019-05-02T00:41:40.492Z,8.03
2019-05-02T00:44:11.092Z,8.05
2019-05-02T00:46:40.711Z,8.02
2019-05-02T00:49:09.398Z,7.88
2019-05-02T00:51:38.036Z,7.97
2019-05-02T00:54:06.718Z,7.68
2019-05-02T00:56:35.364Z,7.70
2019-05-02T00:59:23.215Z,7.59
2019-05-02T01:02:10.974Z,7.72
2019-05-02T01:07:15.523Z,7.57
2019-05-02T01:09:46.900Z,7.47
2019-05-02T01:12:25.799Z,7.49
2019-05-02T01:14:45.060Z,7.60
2019-05-02T01:17:13.666Z,7.56
2019-05-02T01:19:42.334Z,7.69
2019-05-02T01:22:16.040Z,7.64
2019-05-02T01:24:41.680Z,7.57
2019-05-02T01:35:21.205Z,7.49
2019-05-02T01:38:08.999Z,7.59
2019-05-02T01:40:37.600Z,7.50
2019-05-02T01:43:26.419Z,7.52
2019-05-02T01:45:55.090Z,7.50
2019-05-02T01:49:03.551Z,7.41
2019-05-02T01:51:32.111Z,7.39
2019-05-02T01:54:05.058Z,7.42
2019-05-02T01:56:33.071Z,7.18
2019-05-02T01:59:01.407Z,7.19
2019-05-02T02:01:53.292Z,7.21
2019-05-02T02:04:20.940Z,7.23
2019-05-02T02:06:50.071Z,7.33
2019-05-02T02:09:18.755Z,7.26
2019-05-02T02:11:47.380Z,7.23
2019-05-02T02:14:18.585Z,7.26
2019-05-02T02:16:46.346Z,7.20
2019-05-02T02:19:34.652Z,7.18
2019-05-02T02:25:13.265Z,7.12
2019-05-02T02:27:41.903Z,7.11
2019-05-02T02:30:50.393Z,7.00
2019-05-02T02:33:19.008Z,7.06
2019-05-02T02:35:50.333Z,7.03
2019-05-02T02:38:17.950Z,7.02
2019-05-02T02:41:06.575Z,7.02
2019-05-02T02:43:36.090Z,6.99
2019-05-02T02:46:44.549Z,6.96
2019-05-02T02:49:21.279Z,6.89
2019-05-02T02:51:43.668Z,6.82
2019-05-02T02:54:12.302Z,6.83
2019-05-02T02:59:35.568Z,6.82
2019-05-02T03:02:09.935Z,6.78
2019-05-02T03:04:34.711Z,6.89
2019-05-02T03:07:03.315Z,6.82
2019-05-02T03:09:31.996Z,6.65
2019-05-02T03:12:19.740Z,6.57
2019-05-02T03:17:25.965Z,6.49
2019-05-02T03:20:00.808Z,6.44
2019-05-02T03:22:24.570Z,6.37
2019-05-02T03:24:53.243Z,6.32
2019-05-02T03:27:21.878Z,6.31
2019-05-02T03:29:50.543Z,6.40
2019-05-02T03:32:31.876Z,6.36
2019-05-02T03:34:53.437Z,6.34
2019-05-02T03:40:14.653Z,6.23
2019-05-02T03:45:51.461Z,6.26
2019-05-02T03:48:25.654Z,6.17
2019-05-02T03:51:30.394Z,6.18
2019-05-02T03:54:20.107Z,6.34
2019-05-02T03:56:51.234Z,6.24
2019-05-02T03:59:19.048Z,6.27
2019-05-02T04:05:40.354Z,6.60
2019-05-02T04:08:06.026Z,6.63
2019-05-02T04:11:14.518Z,6.87
2019-05-02T04:13:43.232Z,6.95
2019-05-02T04:16:55.296Z,6.99
2019-05-02T04:19:22.054Z,7.03
2019-05-02T04:30:14.524Z,7.44
2019-05-02T04:32:49.771Z,7.49
2019-05-02T04:35:14.924Z,7.51
2019-05-02T04:37:43.913Z,7.56
2019-05-02T04:40:13.944Z,7.52
2019-05-02T04:42:42.551Z,7.40
2019-05-02T04:45:47.332Z,7.42
2019-05-02T04:48:03.774Z,7.37
2019-05-02T04:50:31.073Z,7.39
2019-05-02T04:53:26.046Z,7.44
2019-05-02T04:56:01.549Z,7.45
2019-05-02T04:58:27.709Z,7.48
2019-05-02T05:00:58.125Z,7.59
2019-05-02T05:03:21.431Z,7.71
2019-05-02T05:05:50.057Z,7.75
2019-05-02T05:08:26.629Z,7.79
2019-05-02T05:10:49.094Z,7.83
2019-05-02T05:13:37.543Z,7.84
2019-05-02T05:16:12.160Z,7.92
2019-05-02T05:18:37.994Z,8.01
2019-05-02T05:21:10.645Z,8.00
2019-05-02T05:24:01.322Z,8.11
2019-05-02T05:32:05.263Z,8.39
2019-05-02T05:34:32.482Z,8.48
2019-05-02T05:36:58.513Z,8.70
2019-05-02T05:39:28.199Z,8.84
2019-05-02T05:41:57.906Z,9.03
2019-05-02T05:44:32.462Z,9.26
2019-05-02T05:46:58.402Z,9.45
2019-05-02T05:49:28.249Z,9.40
2019-05-02T05:52:02.127Z,9.43
2019-05-02T05:54:28.271Z,9.53
2019-05-02T05:56:58.112Z,9.57
2019-05-02T05:59:30.380Z,9.43
2019-05-02T06:01:57.948Z,9.37
2019-05-02T06:04:31.117Z,9.51
2019-05-02T06:06:59.465Z,9.38
2019-05-02T06:09:31.151Z,9.47
2019-05-02T06:11:58.578Z,9.53
2019-05-02T06:14:27.241Z,9.68
2019-05-02T06:17:14.965Z,9.71
2019-05-02T06:19:43.578Z,9.87
2019-05-02T06:24:50.965Z,10.17
2019-05-02T06:27:20.923Z,10.38
2019-05-02T06:29:51.186Z,10.41
2019-05-02T06:32:19.347Z,10.57
2019-05-02T06:34:49.084Z,10.67
2019-05-02T06:37:17.727Z,10.90
2019-05-02T06:39:46.264Z,11.08
2019-05-02T06:42:14.832Z,11.31
2019-05-02T06:44:43.459Z,11.41
2019-05-02T06:47:31.420Z,11.39
2019-05-02T06:50:01.123Z,11.65
2019-05-02T06:52:32.709Z,12.16
2019-05-02T06:55:00.925Z,12.33
2019-05-02T06:57:51.590Z,13.12
2019-05-02T07:00:59.193Z,13.43
2019-05-02T07:03:27.867Z,14.22
2019-05-02T07:06:15.942Z,14.79
2019-05-02T07:08:46.227Z,14.59
2019-05-02T07:11:14.876Z,15.39
2019-05-02T07:14:13.031Z,16.60
2019-05-02T07:16:54.638Z,17.63
2019-05-02T07:19:41.722Z,18.94
2019-05-02T07:22:50.135Z,19.60
2019-05-02T07:25:19.054Z,19.47
2019-05-02T07:27:47.618Z,19.65
2019-05-02T07:30:16.369Z,18.96
2019-05-02T07:32:44.972Z,19.25
2019-05-02T07:35:13.647Z,19.15
2019-05-02T07:37:44.000Z,18.88
2019-05-02T07:43:07.498Z,18.84
2019-05-02T07:45:40.326Z,18.53
2019-05-02T07:48:06.439Z,19.03
2019-05-02T07:50:54.753Z,18.09
2019-05-02T07:53:24.735Z,18.18
2019-05-02T07:55:53.371Z,18.74
2019-05-02T07:58:22.071Z,19.91
2019-05-02T08:01:13.602Z,20.07
2019-05-02T08:04:04.196Z,20.91
2019-05-02T08:06:35.430Z,20.68
2019-05-02T08:09:01.520Z,20.28
2019-05-02T08:11:32.300Z,19.75
2019-05-02T08:14:01.021Z,20.01
2019-05-02T08:16:29.666Z,19.48
2019-05-02T08:19:01.466Z,20.15
2019-05-02T08:21:32.510Z,19.52
2019-05-02T08:24:02.405Z,18.65
2019-05-02T08:31:47.890Z,17.76
2019-05-02T08:37:05.798Z,17.98
2019-05-02T08:39:35.225Z,18.05
2019-05-02T08:42:27.686Z,17.38
2019-05-02T08:44:56.295Z,17.42
2019-05-02T08:47:28.554Z,17.26
2019-05-02T08:49:56.750Z,17.70
2019-05-02T08:52:25.681Z,17.70
2019-05-02T08:54:54.339Z,17.51
2019-05-02T08:57:23.864Z,17.67
2019-05-02T08:59:55.413Z,17.65
2019-05-02T09:02:26.038Z,18.04
2019-05-02T09:04:58.579Z,18.28
2019-05-02T09:07:24.469Z,18.13
2019-05-02T09:09:55.538Z,18.05
2019-05-02T09:12:23.336Z,17.99
2019-05-02T09:14:52.156Z,18.16
2019-05-02T09:17:33.152Z,18.04
2019-05-02T09:20:00.404Z,18.36
2019-05-02T09:22:22.150Z,19.00
2019-05-02T09:24:52.064Z,19.18
2019-05-02T09:27:22.432Z,19.15
2019-05-02T09:29:51.911Z,18.97
2019-05-02T09:32:25.016Z,19.18
2019-05-02T09:34:51.982Z,19.62
2019-05-02T09:37:22.658Z,19.72
2019-05-02T09:39:52.491Z,19.77
2019-05-02T09:42:21.680Z,20.07
2019-05-02T09:44:53.372Z,19.96
2019-05-02T09:50:20.647Z,19.65
2019-05-02T09:53:26.547Z,19.63
2019-05-02T09:55:57.920Z,19.71
2019-05-02T09:58:25.656Z,19.78
2019-05-02T10:01:13.470Z,20.16
2019-05-02T10:03:42.409Z,19.60
2019-05-02T10:06:13.968Z,19.65
2019-05-02T10:08:43.556Z,19.82
2019-05-02T10:11:11.847Z,19.86
2019-05-02T10:13:42.343Z,19.89
2019-05-02T10:19:00.260Z,20.44
2019-05-02T10:21:31.827Z,19.44
2019-05-02T10:24:01.910Z,19.37
2019-05-02T10:26:32.972Z,19.32
2019-05-02T10:29:02.162Z,19.71
2019-05-02T10:31:36.305Z,20.10
2019-05-02T10:34:02.463Z,20.29
2019-05-02T10:36:32.553Z,20.85
2019-05-02T10:39:01.862Z,21.28
2019-05-02T10:41:39.604Z,21.98
2019-05-02T10:44:02.357Z,21.91
2019-05-02T10:51:55.392Z,20.96
2019-05-02T10:54:27.941Z,19.88
2019-05-02T10:56:54.452Z,19.89
2019-05-02T10:59:23.111Z,20.60
2019-05-02T11:02:12.767Z,21.01
2019-05-02T11:05:02.564Z,20.61
2019-05-02T11:07:32.661Z,20.52
2019-05-02T11:10:03.139Z,20.31
2019-05-02T11:12:52.513Z,20.73
2019-05-02T11:15:41.851Z,20.14
2019-05-02T11:18:12.570Z,20.30
2019-05-02T11:20:42.105Z,21.13
2019-05-02T11:23:12.726Z,21.35
2019-05-02T11:25:42.211Z,21.28
2019-05-02T11:28:52.229Z,21.25
2019-05-02T11:31:21.838Z,21.59
2019-05-02T11:34:32.682Z,21.83
2019-05-02T11:37:01.840Z,22.19
2019-05-02T11:39:42.366Z,22.39
2019-05-02T11:42:02.239Z,21.79
2019-05-02T11:44:32.607Z,21.82
2019-05-02T11:47:02.022Z,21.61
2019-05-02T11:49:32.099Z,21.45
2019-05-02T11:52:04.562Z,21.19
2019-05-02T11:54:32.372Z,21.87
2019-05-02T11:57:02.273Z,21.41
2019-05-02T11:59:31.995Z,21.63
2019-05-02T12:04:37.189Z,21.10
2019-05-02T12:07:05.851Z,21.35
2019-05-02T12:09:34.455Z,21.55
2019-05-02T12:12:03.095Z,20.85
2019-05-02T12:14:36.144Z,20.70
2019-05-02T12:17:02.675Z,20.96
2019-05-02T12:19:32.627Z,21.16
2019-05-02T12:22:02.662Z,21.10
2019-05-02T12:24:31.966Z,21.40
2019-05-02T12:27:02.608Z,21.45
2019-05-02T12:29:33.521Z,21.71
2019-05-02T12:32:02.790Z,20.91
2019-05-02T12:34:32.541Z,20.93
2019-05-02T12:37:01.852Z,20.46
2019-05-02T12:39:31.663Z,20.60
2019-05-02T12:42:02.866Z,20.63
2019-05-02T12:44:31.867Z,19.84
2019-05-02T12:47:02.612Z,19.88
2019-05-02T12:49:32.451Z,20.47
2019-05-02T12:52:02.266Z,20.82
2019-05-02T12:54:52.380Z,21.09
2019-05-02T12:57:22.011Z,21.13
2019-05-02T12:59:52.441Z,20.44
2019-05-02T13:02:41.715Z,20.77
2019-05-02T13:05:13.029Z,20.78
2019-05-02T13:07:42.843Z,20.32
2019-05-02T13:13:39.240Z,21.20
2019-05-02T13:16:07.970Z,21.80
2019-05-02T13:18:37.391Z,21.57
2019-05-02T13:26:22.883Z,21.03
2019-05-02T13:28:49.099Z,21.20
2019-05-02T13:34:14.898Z,20.74
2019-05-02T13:37:22.653Z,20.74
2019-05-02T13:42:27.134Z,20.41
2019-05-02T13:47:32.521Z,20.63
2019-05-02T13:50:03.712Z,20.78
2019-05-02T13:52:33.230Z,21.04
2019-05-02T13:58:11.824Z,20.61
2019-05-02T14:01:22.382Z,20.93
2019-05-02T14:03:55.497Z,20.71
2019-05-02T14:06:29.562Z,20.19
2019-05-02T14:09:18.406Z,20.03
2019-05-02T14:14:32.599Z,19.49
2019-05-02T14:17:02.998Z,19.83
2019-05-02T14:19:32.025Z,20.17
2019-05-02T14:22:02.817Z,20.64
2019-05-02T14:24:32.252Z,21.21
2019-05-02T14:27:02.602Z,21.00
2019-05-02T14:29:32.969Z,21.43
2019-05-02T14:32:02.810Z,20.92
2019-05-02T14:37:22.714Z,20.47
2019-05-02T14:42:27.830Z,21.66
2019-05-02T14:45:09.081Z,21.58
2019-05-02T14:47:26.855Z,21.30
2019-05-02T14:49:56.748Z,21.45
2019-05-02T14:52:25.913Z,21.24
2019-05-02T14:54:55.751Z,20.61
2019-05-02T14:57:27.140Z,20.47
2019-05-02T14:59:59.484Z,20.75
2019-05-02T15:02:49.221Z,20.83
2019-05-02T15:05:58.992Z,20.89
2019-05-02T15:08:25.512Z,21.22
2019-05-02T15:10:56.568Z,21.21
2019-05-02T15:13:24.653Z,20.87
2019-05-02T15:15:53.376Z,20.90
2019-05-02T15:18:22.778Z,20.64
2019-05-02T15:21:32.450Z,20.63
2019-05-02T15:24:01.765Z,20.42
2019-05-02T15:26:33.322Z,20.10
2019-05-02T15:29:02.104Z,20.16
2019-05-02T15:31:49.828Z,20.19
2019-05-02T15:34:46.181Z,19.80
2019-05-02T15:37:07.982Z,19.94
2019-05-02T15:42:06.988Z,19.73
2019-05-02T15:44:35.559Z,19.67
2019-05-02T15:47:06.875Z,19.61
2019-05-02T15:55:40.126Z,19.17
2019-05-02T15:58:49.418Z,19.37
2019-05-02T16:01:41.608Z,19.32
2019-05-02T16:06:42.805Z,19.01
2019-05-02T16:09:11.846Z,18.83
2019-05-02T16:11:43.470Z,18.69
2019-05-02T16:14:12.768Z,18.27
2019-05-02T16:16:45.175Z,18.10
2019-05-02T16:19:14.943Z,17.96
2019-05-02T16:22:06.283Z,17.87
2019-05-02T16:24:33.033Z,17.61
2019-05-02T16:27:01.724Z,17.53
2019-05-02T16:29:49.695Z,17.36
2019-05-02T16:32:37.858Z,16.46
2019-05-02T16:38:02.661Z,14.11
2019-05-02T16:43:39.384Z,13.05
2019-05-02T16:46:11.852Z,12.79
2019-05-02T16:48:39.189Z,12.47
2019-05-02T16:51:29.456Z,12.16
2019-05-02T16:53:39.165Z,12.24
2019-05-02T16:56:07.804Z,12.24
2019-05-02T16:58:38.014Z,12.09
2019-05-02T17:01:07.141Z,12.00
2019-05-02T17:03:35.787Z,12.09
2019-05-02T17:06:04.607Z,12.04
2019-05-02T17:08:57.157Z,12.09
2019-05-02T17:14:13.450Z,12.21
2019-05-02T17:16:42.287Z,12.27
2019-05-02T17:19:12.303Z,12.24
2019-05-02T17:21:52.972Z,12.19
2019-05-02T17:24:12.654Z,12.17
2019-05-02T17:27:02.545Z,12.24
2019-05-02T17:29:31.961Z,12.13
2019-05-02T17:32:19.897Z,12.10
2019-05-02T17:34:48.490Z,12.21
2019-05-02T17:37:17.102Z,12.32
2019-05-02T17:39:46.127Z,12.30
2019-05-02T17:42:17.067Z,12.16
2019-05-02T17:44:46.497Z,12.30
2019-05-02T17:47:15.057Z,12.34
2019-05-02T17:49:43.750Z,12.24
2019-05-02T17:54:47.888Z,12.11
2019-05-02T17:57:35.780Z,12.13
2019-05-02T18:03:03.353Z,11.98
2019-05-02T18:05:35.572Z,11.94
2019-05-02T18:08:06.089Z,12.01
2019-05-02T18:10:32.785Z,12.04
2019-05-02T18:13:02.618Z,12.08
2019-05-02T18:15:34.763Z,12.13
2019-05-02T18:18:06.541Z,12.17
2019-05-02T18:20:37.118Z,12.14
2019-05-02T18:23:05.747Z,12.00
2019-05-02T18:25:33.506Z,11.98
2019-05-02T18:28:25.909Z,12.03
2019-05-02T18:30:52.469Z,11.96
2019-05-02T18:33:22.674Z,11.90
2019-05-02T18:35:52.724Z,11.79
2019-05-02T18:38:22.388Z,11.65
2019-05-02T18:40:53.018Z,11.60
2019-05-02T18:43:22.372Z,11.60
2019-05-02T18:45:51.596Z,11.58
2019-05-02T18:48:21.963Z,11.49
2019-05-02T18:50:52.605Z,11.54
2019-05-02T18:53:24.265Z,11.42
2019-05-02T18:55:56.726Z,11.43
2019-05-02T18:58:23.070Z,11.37
2019-05-02T19:00:52.097Z,11.42
2019-05-02T19:03:22.998Z,11.43
2019-05-02T19:05:57.238Z,11.43
2019-05-02T19:08:31.336Z,11.39
2019-05-02T19:11:04.757Z,11.47
2019-05-02T19:13:23.852Z,11.45
2019-05-02T19:15:53.431Z,11.45
2019-05-02T19:18:22.972Z,11.41
2019-05-02T19:21:35.640Z,11.50
2019-05-02T19:24:02.300Z,11.48
2019-05-02T19:26:32.589Z,11.47
2019-05-02T19:29:23.991Z,11.39
2019-05-02T19:31:52.582Z,11.28
2019-05-02T19:34:26.654Z,11.28
2019-05-02T19:36:53.106Z,11.35
2019-05-02T19:39:23.916Z,11.43
2019-05-02T19:41:52.160Z,11.45
2019-05-02T19:44:28.725Z,11.54
2019-05-02T19:46:52.011Z,11.53
2019-05-02T19:49:23.084Z,11.46
2019-05-02T19:51:56.408Z,11.47
2019-05-02T19:54:22.369Z,11.46
2019-05-02T20:00:02.717Z,11.26
2019-05-02T20:02:30.383Z,11.27
2019-05-02T20:04:59.069Z,11.33
2019-05-02T20:07:27.687Z,11.22
2019-05-02T20:09:56.323Z,11.24
2019-05-02T20:12:25.005Z,11.18
2019-05-02T20:14:53.658Z,11.14
2019-05-02T20:17:24.058Z,11.27
2019-05-02T20:22:28.345Z,11.18
2019-05-02T20:25:00.264Z,11.10
2019-05-02T20:28:07.182Z,11.11
2019-05-02T20:30:36.035Z,11.14
2019-05-02T20:33:05.344Z,11.15
2019-05-02T20:35:35.085Z,11.25
2019-05-02T20:38:03.739Z,11.32
2019-05-02T20:41:12.743Z,11.17
2019-05-02T20:43:44.797Z,11.24
2019-05-02T20:46:12.953Z,11.19
2019-05-02T20:48:41.935Z,11.14
2019-05-02T20:51:12.298Z,11.07
2019-05-02T20:53:42.402Z,11.12
2019-05-02T20:56:12.357Z,11.05
2019-05-02T20:58:41.987Z,11.02
2019-05-02T21:01:12.541Z,11.06
2019-05-02T21:04:02.700Z,10.94
2019-05-02T21:09:34.700Z,10.74
2019-05-02T21:14:38.619Z,10.81
2019-05-02T21:17:07.307Z,10.72
2019-05-02T21:19:35.941Z,10.69
2019-05-02T21:22:44.394Z,10.65
2019-05-02T21:25:13.292Z,10.59
2019-05-02T21:30:37.026Z,10.59
2019-05-02T21:33:45.428Z,10.58
2019-05-02T21:36:14.103Z,10.57
2019-05-02T21:38:42.958Z,10.50
2019-05-02T21:41:51.787Z,10.44
2019-05-02T21:44:22.297Z,10.36
2019-05-02T21:46:52.149Z,10.29
2019-05-02T21:49:39.955Z,10.26
2019-05-02T21:52:27.759Z,10.28
2019-05-02T21:55:15.444Z,10.29
2019-05-02T21:57:44.100Z,10.27
2019-05-02T22:00:52.796Z,10.15
2019-05-02T22:03:21.764Z,10.18
2019-05-02T22:05:50.373Z,10.12
2019-05-02T22:08:19.062Z,10.06
2019-05-02T22:10:47.721Z,10.18
2019-05-02T22:13:16.400Z,10.16
2019-05-02T22:15:45.036Z,10.20
2019-05-02T22:18:14.167Z,10.20
2019-05-02T22:20:43.150Z,10.17
2019-05-02T22:23:11.957Z,10.08
2019-05-02T22:25:41.983Z,10.18
2019-05-02T22:28:12.574Z,10.16
2019-05-02T22:30:42.936Z,10.18
2019-05-02T22:33:32.813Z,10.02
2019-05-02T22:36:01.979Z,9.88
2019-05-02T22:41:22.152Z,9.83
2019-05-02T22:43:51.694Z,9.78
2019-05-02T22:49:11.515Z,9.80
2019-05-02T22:51:40.038Z,9.76
2019-05-02T22:54:20.791Z,9.79
2019-05-02T22:56:39.099Z,9.80
2019-05-02T22:59:07.741Z,9.75
2019-05-02T23:01:36.519Z,9.72
2019-05-02T23:04:44.984Z,9.75
2019-05-02T23:07:13.621Z,9.77
2019-05-02T23:09:43.772Z,9.87
2019-05-02T23:12:32.008Z,9.81
2019-05-02T23:15:21.603Z,9.81
2019-05-02T23:17:52.187Z,9.88
2019-05-02T23:20:21.789Z,9.87
2019-05-02T23:22:52.392Z,9.85
2019-05-02T23:25:42.237Z,9.86
2019-05-02T23:28:31.798Z,9.83
2019-05-02T23:31:02.470Z,9.81
2019-05-02T23:33:51.603Z,9.75
2019-05-02T23:36:20.476Z,9.75
2019-05-02T23:38:49.042Z,9.71
2019-05-02T23:41:17.697Z,9.73
2019-05-02T23:43:46.426Z,9.77
2019-05-02T23:46:15.071Z,9.78
2019-05-02T23:48:43.729Z,9.69
2019-05-02T23:51:12.401Z,9.70
2019-05-02T23:53:42.231Z,9.68
2019-05-02T23:56:13.175Z,9.68
2019-05-02T23:58:42.650Z,9.80
